Time;durP1;ratioP1;P1;durP2;ratioP2;P2;SDS_P1;SDS_P2;PMS_P1;PMS_P2;Temp;Humidity;BMP_temperature;BMP_pressure;BME280_temperature;BME280_humidity;BME280_pressure;Samples;Min_cycle;Max_cycle;Signal;HPM_P1;HPM_P2
2022/06/17 00:01:13;;;;;;;3.80;3.60;;;21.60;46.70;;;;;;4981276;28;20939;-57
2022/06/17 00:03:39;;;;;;;3.47;3.30;;;21.60;46.80;;;;;;4985259;28;20235;-57
2022/06/17 00:06:05;;;;;;;3.27;3.07;;;21.60;46.80;;;;;;4998501;28;20221;-58
2022/06/17 00:08:40;;;;;;;3.37;3.17;;;21.60;46.80;;;;;;4982023;28;20217;-57
2022/06/17 00:11:23;;;;;;;3.60;3.30;;;21.60;46.80;;;;;;4983973;28;20477;-57
2022/06/17 00:13:48;;;;;;;4.10;3.70;;;21.60;46.80;;;;;;4985696;28;20458;-57
2022/06/17 00:16:16;;;;;;;3.80;3.60;;;21.60;46.80;;;;;;4983576;28;20485;-58
2022/06/17 00:18:42;;;;;;;3.53;3.30;;;21.60;46.80;;;;;;4986130;28;20239;-57
2022/06/17 00:21:33;;;;;;;3.60;3.40;;;21.60;46.80;;;;;;4981960;28;20450;-57
2022/06/17 00:23:59;;;;;;;3.90;3.70;;;21.60;46.80;;;;;;4982092;28;20454;-57
2022/06/17 00:26:25;;;;;;;3.43;3.23;;;21.60;46.80;;;;;;4988636;28;20466;-57
2022/06/17 00:28:51;;;;;;;3.50;3.30;;;21.60;46.80;;;;;;4984726;28;20979;-59
2022/06/17 00:31:17;;;;;;;3.97;3.77;;;21.60;46.70;;;;;;4982376;28;20224;-57
2022/06/17 00:33:43;;;;;;;3.50;3.30;;;21.60;46.80;;;;;;4986670;28;20982;-57
2022/06/17 00:36:15;;;;;;;3.23;3.03;;;21.60;46.80;;;;;;4998441;28;20240;-58
2022/06/17 00:38:41;;;;;;;3.70;3.50;;;21.60;47.20;;;;;;4985929;28;20474;-57
2022/06/17 00:41:14;;;;;;;3.90;3.70;;;21.60;46.80;;;;;;4983268;28;20426;-58
2022/06/17 00:43:42;;;;;;;3.70;3.40;;;21.60;46.80;;;;;;4986569;28;20221;-57
2022/06/17 00:46:24;;;;;;;3.10;3.00;;;21.60;46.90;;;;;;4985390;28;20476;-58
2022/06/17 00:49:03;;;;;;;3.40;3.23;;;21.60;46.90;;;;;;4983592;28;20489;-57
2022/06/17 00:51:34;;;;;;;3.53;3.33;;;21.60;46.80;;;;;;4985416;28;20465;-58
2022/06/17 00:54:13;;;;;;;2.83;2.73;;;21.60;46.90;;;;;;4983185;28;20557;-58
2022/06/17 00:56:39;;;;;;;3.17;3.07;;;21.60;46.80;;;;;;4981438;28;20474;-57
2022/06/17 00:59:07;;;;;;;3.30;3.10;;;21.60;46.80;;;;;;4999050;28;20854;-57
2022/06/17 01:01:56;;;;;;;3.50;3.30;;;21.60;46.90;;;;;;4984698;28;20698;-58
2022/06/17 01:04:31;;;;;;;3.63;3.43;;;21.60;46.80;;;;;;4979297;28;20491;-59
2022/06/17 01:07:13;;;;;;;3.77;3.53;;;21.60;46.90;;;;;;4980483;28;20450;-59
2022/06/17 01:09:58;;;;;;;4.20;4.00;;;21.60;46.90;;;;;;4979910;28;20424;-58
2022/06/17 01:12:28;;;;;;;3.60;3.40;;;21.60;46.90;;;;;;4985684;28;20560;-58
2022/06/17 01:14:55;;;;;;;4.03;3.83;;;21.60;46.90;;;;;;4982688;28;20459;-57
2022/06/17 01:17:22;;;;;;;3.57;3.37;;;21.50;46.80;;;;;;4977862;28;20569;-58
2022/06/17 01:19:51;;;;;;;3.70;3.50;;;21.60;46.90;;;;;;4980952;28;20454;-57
2022/06/17 01:22:38;;;;;;;3.83;3.53;;;21.60;46.90;;;;;;4983755;28;20462;-58
2022/06/17 01:25:03;;;;;;;3.40;3.20;;;21.60;46.90;;;;;;4979311;28;20494;-57
2022/06/17 01:27:36;;;;;;;3.20;3.00;;;21.60;46.90;;;;;;4980977;28;20502;-57
2022/06/17 01:30:02;;;;;;;3.87;3.67;;;21.60;46.90;;;;;;4995229;28;20698;-58
2022/06/17 01:32:34;;;;;;;3.33;3.13;;;21.60;46.90;;;;;;4984873;28;20517;-58
2022/06/17 01:35:00;;;;;;;3.60;3.40;;;21.60;46.90;;;;;;4977619;28;20553;-58
2022/06/17 01:37:27;;;;;;;3.17;3.03;;;21.60;46.90;;;;;;4984904;28;20537;-58
2022/06/17 01:39:55;;;;;;;3.30;3.10;;;21.60;46.90;;;;;;4979566;28;20458;-59
2022/06/17 01:42:22;;;;;;;3.47;3.27;;;21.60;46.90;;;;;;4984033;28;20470;-58
2022/06/17 01:44:48;;;;;;;3.33;3.20;;;21.60;46.80;;;;;;4981321;28;20447;-57
2022/06/17 01:47:20;;;;;;;3.37;3.20;;;21.60;46.80;;;;;;4981897;28;20488;-57
2022/06/17 01:49:51;;;;;;;3.20;3.00;;;21.60;46.80;;;;;;4998782;28;20357;-57
2022/06/17 01:52:28;;;;;;;3.50;3.33;;;21.60;46.90;;;;;;4982142;28;20521;-59
2022/06/17 01:55:18;;;;;;;3.70;3.50;;;21.60;46.90;;;;;;4981601;28;20461;-57
2022/06/17 01:57:55;;;;;;;4.37;4.07;;;21.60;46.90;;;;;;4979716;28;20462;-58
2022/06/17 02:00:24;;;;;;;3.73;3.53;;;21.50;46.80;;;;;;4983429;28;20450;-58
2022/06/17 02:03:02;;;;;;;3.43;3.23;;;21.50;46.80;;;;;;4983332;28;20953;-58
2022/06/17 02:05:30;;;;;;;3.90;3.70;;;21.60;46.90;;;;;;4999014;28;20817;-58
2022/06/17 02:07:58;;;;;;;3.40;3.20;;;21.60;46.90;;;;;;4980542;28;20467;-62
2022/06/17 02:10:31;;;;;;;3.50;3.30;;;21.60;46.90;;;;;;4982240;28;20585;-57
2022/06/17 02:12:59;;;;;;;3.10;3.00;;;21.60;46.90;;;;;;4982726;28;20446;-58
2022/06/17 02:15:26;;;;;;;3.50;3.30;;;21.60;46.90;;;;;;4981119;28;20494;-58
2022/06/17 02:17:53;;;;;;;4.00;3.80;;;21.50;46.80;;;;;;4980413;28;20473;-59
2022/06/17 02:20:21;;;;;;;3.30;3.20;;;21.60;46.90;;;;;;4980589;28;20447;-58
2022/06/17 02:22:47;;;;;;;3.80;3.60;;;21.60;46.90;;;;;;4982912;28;20461;-58
2022/06/17 02:25:18;;;;;;;3.33;3.13;;;21.60;46.90;;;;;;4980621;28;20487;-58
2022/06/17 02:27:47;;;;;;;3.60;3.40;;;21.60;46.90;;;;;;4980657;28;20979;-57
2022/06/17 02:30:14;;;;;;;3.57;3.37;;;21.50;46.80;;;;;;4981956;28;20868;-58
2022/06/17 02:32:40;;;;;;;3.30;3.10;;;21.60;46.90;;;;;;4982077;28;20470;-58
2022/06/17 02:35:29;;;;;;;3.70;3.50;;;21.60;46.90;;;;;;4980178;28;20502;-57
2022/06/17 02:37:55;;;;;;;3.33;3.23;;;21.60;46.90;;;;;;4978576;28;20232;-57
2022/06/17 02:40:36;;;;;;;3.30;3.10;;;21.60;47.00;;;;;;4994998;28;20954;-58
2022/06/17 02:43:06;;;;;;;3.30;3.17;;;21.50;46.90;;;;;;4992728;28;20475;-57
2022/06/17 02:45:35;;;;;;;3.50;3.30;;;21.60;46.90;;;;;;4977311;28;20494;-59
2022/06/17 02:48:04;;;;;;;3.23;3.10;;;21.50;46.80;;;;;;4980718;28;20456;-58
2022/06/17 02:50:30;;;;;;;3.57;3.37;;;21.60;47.00;;;;;;4978870;28;20454;-58
2022/06/17 02:52:58;;;;;;;3.33;3.13;;;21.60;47.00;;;;;;4978275;28;20458;-58
2022/06/17 02:55:34;;;;;;;3.23;3.13;;;21.60;46.90;;;;;;4981101;28;20686;-58
2022/06/17 02:58:20;;;;;;;3.73;3.53;;;21.60;46.90;;;;;;4978554;28;20557;-58
2022/06/17 03:00:46;;;;;;;3.27;3.10;;;21.60;47.00;;;;;;4982042;28;20549;-59
2022/06/17 03:03:15;;;;;;;3.90;3.70;;;21.60;47.00;;;;;;4991577;28;20525;-59
2022/06/17 03:05:43;;;;;;;4.23;4.03;;;21.50;46.80;;;;;;4976444;28;20641;-60
2022/06/17 03:08:22;;;;;;;2.97;2.87;;;21.50;46.90;;;;;;4992295;28;20451;-59
2022/06/17 03:10:50;;;;;;;3.70;3.50;;;21.60;47.00;;;;;;4975798;28;20897;-58
2022/06/17 03:13:30;;;;;;;3.73;3.53;;;21.50;46.80;;;;;;4983473;28;20442;-58
2022/06/17 03:15:59;;;;;;;3.47;3.27;;;21.50;46.80;;;;;;4978549;28;20541;-58
2022/06/17 03:18:26;;;;;;;3.60;3.40;;;21.50;47.70;;;;;;4983508;28;20948;-58
2022/06/17 03:20:53;;;;;;;3.50;3.30;;;21.60;47.00;;;;;;4983195;28;20426;-59
2022/06/17 03:23:24;;;;;;;3.00;2.90;;;21.60;47.80;;;;;;4979508;28;20420;-59
2022/06/17 03:26:06;;;;;;;3.40;3.20;;;21.50;47.00;;;;;;4981973;28;20449;-58
2022/06/17 03:28:40;;;;;;;3.37;3.17;;;21.50;47.70;;;;;;4980877;28;20459;-58
2022/06/17 03:31:18;;;;;;;2.90;2.80;;;21.50;47.00;;;;;;4995115;28;20947;-58
2022/06/17 03:33:53;;;;;;;3.13;2.93;;;21.50;46.90;;;;;;4981131;28;20455;-58
2022/06/17 03:36:44;;;;;;;3.33;3.13;;;21.50;46.90;;;;;;4980111;28;21060;-58
2022/06/17 03:39:24;;;;;;;3.37;3.27;;;21.60;47.00;;;;;;4982939;28;20998;-58
2022/06/17 03:42:02;;;;;;;3.43;3.23;;;21.50;46.90;;;;;;4993617;28;20513;-58
2022/06/17 03:44:58;;;;;;;3.40;3.23;;;21.50;46.90;;;;;;4980383;28;20458;-58
2022/06/17 03:47:40;;;;;;;2.93;2.83;;;21.50;47.00;;;;;;4979280;28;20492;-58
2022/06/17 03:50:08;;;;;;;3.50;3.30;;;21.50;46.90;;;;;;4978173;28;20485;-57
2022/06/17 03:52:40;;;;;;;3.40;3.30;;;21.50;47.00;;;;;;4980185;28;20503;-58
2022/06/17 03:55:13;;;;;;;3.23;3.13;;;21.50;46.90;;;;;;4980806;28;20529;-57
2022/06/17 03:57:41;;;;;;;3.33;3.20;;;21.50;47.00;;;;;;4978442;28;20473;-58
2022/06/17 04:00:16;;;;;;;3.30;3.20;;;21.50;46.90;;;;;;4979741;28;20454;-58
2022/06/17 04:02:42;;;;;;;3.33;3.13;;;21.50;46.90;;;;;;4981364;28;20457;-58
2022/06/17 04:05:14;;;;;;;3.23;3.13;;;21.50;47.00;;;;;;4982309;28;21017;-58
2022/06/17 04:07:40;;;;;;;3.20;3.03;;;21.50;46.90;;;;;;4982568;28;20451;-58
2022/06/17 04:10:06;;;;;;;3.50;3.30;;;21.50;47.00;;;;;;4996546;28;20458;-57
2022/06/17 04:12:34;;;;;;;3.20;3.10;;;21.50;46.90;;;;;;4983910;28;20233;-58
2022/06/17 04:15:40;;;;;;;3.53;3.33;;;21.60;47.00;;;;;;4981988;28;20479;-57
2022/06/17 04:18:08;;;;;;;3.70;3.50;;;21.50;46.90;;;;;;4982057;28;20541;-58
2022/06/17 04:20:34;;;;;;;3.30;3.20;;;21.50;47.00;;;;;;4983789;28;20454;-57
2022/06/17 04:23:19;;;;;;;3.30;3.10;;;21.60;47.10;;;;;;4980825;28;20501;-58
2022/06/17 04:25:50;;;;;;;3.30;3.10;;;21.60;47.10;;;;;;4983017;28;20236;-58
2022/06/17 04:28:20;;;;;;;3.57;3.37;;;21.50;47.00;;;;;;4980979;28;20450;-58
2022/06/17 04:30:52;;;;;;;3.17;3.00;;;21.50;47.00;;;;;;4980140;28;20459;-58
2022/06/17 04:33:28;;;;;;;3.20;3.10;;;21.50;47.00;;;;;;4986089;28;20915;-57
2022/06/17 04:36:00;;;;;;;3.20;3.10;;;21.50;47.00;;;;;;4986799;28;20469;-58
2022/06/17 04:38:28;;;;;;;3.57;3.37;;;21.50;47.00;;;;;;4985082;28;20801;-59
2022/06/17 04:40:59;;;;;;;3.50;3.30;;;21.50;47.00;;;;;;4985041;28;20947;-58
2022/06/17 04:43:36;;;;;;;3.17;3.07;;;21.50;47.00;;;;;;4982951;28;20505;-58
2022/06/17 04:46:12;;;;;;;3.33;3.13;;;21.60;47.00;;;;;;4984005;28;20534;-59
2022/06/17 04:48:38;;;;;;;3.90;3.70;;;21.60;47.00;;;;;;4985780;28;20436;-58
2022/06/17 04:51:04;;;;;;;2.93;2.73;;;21.60;47.00;;;;;;4985165;28;20447;-58
2022/06/17 04:53:32;;;;;;;3.60;3.40;;;21.60;47.00;;;;;;4984927;28;20276;-59
2022/06/17 04:55:59;;;;;;;3.67;3.47;;;21.60;47.00;;;;;;4982105;28;20463;-58
2022/06/17 04:58:26;;;;;;;3.40;3.20;;;21.60;47.00;;;;;;4983680;28;20541;-58
2022/06/17 05:00:56;;;;;;;3.03;2.90;;;21.60;47.00;;;;;;4983831;28;20459;-58
2022/06/17 05:03:29;;;;;;;2.90;2.80;;;21.60;47.00;;;;;;4978738;28;21112;-59
2022/06/17 05:05:55;;;;;;;3.27;3.17;;;21.60;46.90;;;;;;4983625;28;20451;-58
2022/06/17 05:08:42;;;;;;;4.20;4.00;;;21.60;46.90;;;;;;4983371;28;20472;-58
2022/06/17 05:11:19;;;;;;;3.70;3.50;;;21.60;46.90;;;;;;4982490;28;20455;-59
2022/06/17 05:13:54;;;;;;;3.80;3.60;;;21.60;47.00;;;;;;4981516;28;20459;-59
2022/06/17 05:16:22;;;;;;;3.30;3.10;;;21.60;47.00;;;;;;4983378;28;20459;-58
2022/06/17 05:18:48;;;;;;;3.77;3.57;;;21.60;47.00;;;;;;4982423;28;20478;-58
2022/06/17 05:21:20;;;;;;;3.67;3.47;;;21.60;46.90;;;;;;4997497;28;20451;-58
2022/06/17 05:23:48;;;;;;;3.70;3.50;;;21.70;47.10;;;;;;4981624;28;20818;-58
2022/06/17 05:26:14;;;;;;;3.70;3.53;;;21.70;47.00;;;;;;4980942;28;20462;-58
2022/06/17 05:28:39;;;;;;;3.60;3.40;;;21.70;47.00;;;;;;4981880;28;20473;-58
2022/06/17 05:31:05;;;;;;;3.30;3.20;;;21.70;47.00;;;;;;4979666;28;20237;-58
2022/06/17 05:33:30;;;;;;;3.40;3.30;;;21.70;47.00;;;;;;4982287;28;20236;-58
2022/06/17 05:35:56;;;;;;;2.83;2.73;;;21.70;47.00;;;;;;4979076;28;20213;-58
2022/06/17 05:38:21;;;;;;;2.73;2.63;;;21.70;47.00;;;;;;4978934;28;20247;-60
2022/06/17 05:40:47;;;;;;;3.40;3.30;;;21.70;46.90;;;;;;4981026;28;20311;-57
2022/06/17 05:43:13;;;;;;;3.23;3.07;;;21.70;47.00;;;;;;4974968;28;20221;-58
2022/06/17 05:45:39;;;;;;;3.50;3.30;;;21.70;47.00;;;;;;4984813;28;20232;-58
2022/06/17 05:48:06;;;;;;;3.67;3.47;;;21.70;46.90;;;;;;4980448;28;20271;-58
2022/06/17 05:50:32;;;;;;;3.10;2.90;;;21.70;47.00;;;;;;4982616;28;20458;-59
2022/06/17 05:53:00;;;;;;;3.70;3.50;;;21.70;47.00;;;;;;4982071;28;20787;-58
2022/06/17 05:55:29;;;;;;;3.50;3.40;;;21.70;46.90;;;;;;4984490;28;20221;-58
2022/06/17 05:57:55;;;;;;;3.73;3.53;;;21.70;47.00;;;;;;4984840;28;20566;-57
2022/06/17 06:00:23;;;;;;;3.23;3.03;;;21.70;47.00;;;;;;4983872;28;20533;-58
2022/06/17 06:02:49;;;;;;;3.33;3.23;;;21.70;47.00;;;;;;4981817;28;20308;-58
2022/06/17 06:05:21;;;;;;;3.20;3.07;;;21.70;47.00;;;;;;4986241;28;20459;-58
2022/06/17 06:07:47;;;;;;;3.10;3.00;;;21.70;47.00;;;;;;4984939;28;20221;-59
2022/06/17 06:10:15;;;;;;;3.03;2.93;;;21.70;47.00;;;;;;4984050;28;20980;-58
2022/06/17 06:15:30;;;;;;;3.57;3.37;;;21.70;47.00;;;;;;4981849;28;20569;-58
2022/06/17 06:17:55;;;;;;;3.50;3.30;;;21.70;46.90;;;;;;4985456;28;20463;-58
2022/06/17 06:20:21;;;;;;;3.17;3.00;;;21.70;47.00;;;;;;4983007;28;21138;-58
2022/06/17 06:22:47;;;;;;;3.60;3.40;;;21.70;47.00;;;;;;4982464;28;20248;-58
2022/06/17 06:25:15;;;;;;;3.40;3.27;;;21.70;46.90;;;;;;4978066;28;20557;-57
2022/06/17 06:27:41;;;;;;;3.37;3.27;;;21.80;47.00;;;;;;4980139;28;20286;-57
2022/06/17 06:30:14;;;;;;;2.97;2.87;;;21.80;47.00;;;;;;4981098;28;20528;-59
2022/06/17 06:32:56;;;;;;;3.60;3.40;;;21.80;47.00;;;;;;4978462;28;20290;-57
2022/06/17 06:35:24;;;;;;;3.00;2.90;;;21.70;46.90;;;;;;4979955;28;20461;-58
2022/06/17 06:37:50;;;;;;;3.20;3.10;;;21.80;47.00;;;;;;4980925;28;20475;-57
2022/06/17 06:40:18;;;;;;;3.27;3.07;;;21.80;47.00;;;;;;4982324;28;20569;-59
2022/06/17 06:42:45;;;;;;;3.43;3.23;;;21.80;47.00;;;;;;4980116;28;20497;-58
2022/06/17 06:45:26;;;;;;;4.07;3.87;;;21.80;47.00;;;;;;4981095;28;20450;-58
2022/06/17 06:47:54;;;;;;;3.27;3.17;;;21.80;47.00;;;;;;4981494;28;20493;-58
2022/06/17 06:50:24;;;;;;;3.40;3.20;;;21.80;47.00;;;;;;4982771;28;20469;-58
2022/06/17 06:52:50;;;;;;;3.60;3.40;;;21.80;46.90;;;;;;4982447;28;20454;-58
2022/06/17 06:55:16;;;;;;;3.80;3.60;;;21.80;47.00;;;;;;4997825;28;20505;-58
2022/06/17 06:57:45;;;;;;;3.97;3.77;;;21.80;47.00;;;;;;4981457;28;20274;-60
2022/06/17 07:00:15;;;;;;;3.70;3.50;;;21.80;46.90;;;;;;4996749;28;20478;-58
2022/06/17 07:02:41;;;;;;;3.43;3.23;;;21.80;46.90;;;;;;4978929;28;20526;-58
2022/06/17 07:05:08;;;;;;;4.13;3.93;;;21.80;46.80;;;;;;4983127;28;20462;-58
2022/06/17 07:07:33;;;;;;;3.93;3.73;;;21.80;46.90;;;;;;4980438;28;20443;-58
2022/06/17 07:09:59;;;;;;;3.97;3.77;;;21.80;46.80;;;;;;4983205;28;20870;-58
2022/06/17 07:12:24;;;;;;;3.53;3.40;;;21.80;46.90;;;;;;4984971;28;20216;-58
2022/06/17 07:14:50;;;;;;;3.67;3.47;;;21.80;46.90;;;;;;4975379;28;20304;-58
2022/06/17 07:17:16;;;;;;;3.33;3.13;;;21.80;46.80;;;;;;4981341;28;20219;-58
2022/06/17 07:19:41;;;;;;;4.30;4.10;;;21.80;46.90;;;;;;4982237;28;20224;-58
2022/06/17 07:22:07;;;;;;;3.60;3.40;;;21.80;46.80;;;;;;4982457;28;20224;-59
2022/06/17 07:24:32;;;;;;;3.37;3.27;;;21.80;46.70;;;;;;4983338;28;20224;-58
2022/06/17 07:26:58;;;;;;;3.50;3.30;;;21.90;46.80;;;;;;4982454;28;20244;-59
2022/06/17 07:29:24;;;;;;;3.53;3.33;;;21.90;46.70;;;;;;4982268;28;20976;-58
2022/06/17 07:31:49;;;;;;;3.43;3.23;;;21.90;46.60;;;;;;4980140;28;20225;-58
2022/06/17 07:34:16;;;;;;;3.50;3.30;;;21.90;46.60;;;;;;4981810;28;20228;-58
2022/06/17 07:42:10;;;;;;;3.70;3.50;;;21.90;46.60;;;;;;4981183;28;20963;-58
2022/06/17 07:44:37;;;;;;;3.70;3.40;;;21.90;46.60;;;;;;4982083;28;20442;-59
2022/06/17 07:47:03;;;;;;;3.40;3.20;;;21.90;46.70;;;;;;4982232;28;20236;-58
2022/06/17 07:49:29;;;;;;;3.30;3.10;;;21.90;46.60;;;;;;4983487;28;20803;-58
2022/06/17 07:51:55;;;;;;;3.70;3.50;;;21.90;46.70;;;;;;4981971;28;20987;-58
2022/06/17 07:54:21;;;;;;;3.30;3.13;;;21.90;46.70;;;;;;4984822;28;20451;-58
2022/06/17 07:56:46;;;;;;;3.77;3.57;;;21.90;46.70;;;;;;4990791;28;20312;-58
2022/06/17 07:59:12;;;;;;;3.60;3.40;;;21.90;46.70;;;;;;4981352;28;20237;-58
2022/06/17 08:01:38;;;;;;;3.30;3.10;;;21.90;46.70;;;;;;4984990;28;20212;-59
2022/06/17 08:04:04;;;;;;;3.63;3.43;;;21.90;46.70;;;;;;4981814;28;20228;-58
2022/06/17 08:06:29;;;;;;;3.40;3.20;;;21.90;46.80;;;;;;4983603;28;20220;-57
2022/06/17 08:08:55;;;;;;;3.40;3.20;;;21.90;46.80;;;;;;4983352;28;20453;-58
2022/06/17 08:11:21;;;;;;;3.57;3.33;;;21.90;46.80;;;;;;4983707;28;20666;-57
2022/06/17 08:13:49;;;;;;;3.60;3.33;;;21.90;46.90;;;;;;4984696;28;20278;-58
2022/06/17 08:16:14;;;;;;;3.43;3.23;;;21.90;46.80;;;;;;4981083;28;20228;-58
2022/06/17 08:18:41;;;;;;;3.63;3.43;;;21.90;46.80;;;;;;4985718;28;20466;-58
2022/06/17 08:21:07;;;;;;;3.60;3.30;;;21.90;46.90;;;;;;4996609;28;20228;-59
2022/06/17 08:23:32;;;;;;;3.67;3.57;;;21.90;46.80;;;;;;4980106;28;20459;-58
2022/06/17 08:25:59;;;;;;;4.00;3.70;;;21.90;46.80;;;;;;4984079;28;20244;-58
2022/06/17 08:28:25;;;;;;;3.40;3.20;;;21.90;46.90;;;;;;4980636;28;20378;-57
2022/06/17 08:30:53;;;;;;;3.37;3.17;;;21.90;46.80;;;;;;4982653;28;21015;-58
2022/06/17 08:33:27;;;;;;;3.37;3.20;;;21.90;46.80;;;;;;4981773;28;20585;-58
2022/06/17 08:35:55;;;;;;;3.50;3.30;;;21.80;46.80;;;;;;4981110;28;20478;-59
2022/06/17 08:38:30;;;;;;;4.17;3.97;;;21.80;46.70;;;;;;4984281;28;20979;-57
2022/06/17 08:40:57;;;;;;;3.53;3.33;;;21.90;46.90;;;;;;4981260;28;20447;-58
2022/06/17 08:43:57;;;;;;;3.47;3.27;;;21.80;46.80;;;;;;4985955;28;20488;-58
2022/06/17 08:46:35;;;;;;;3.57;3.37;;;21.80;46.80;;;;;;4988395;28;20505;-59
2022/06/17 08:49:07;;;;;;;3.40;3.20;;;21.80;46.80;;;;;;4996727;28;20458;-58
2022/06/17 08:51:47;;;;;;;3.60;3.40;;;21.80;46.80;;;;;;4983408;28;20454;-58
2022/06/17 08:54:35;;;;;;;3.60;3.40;;;21.80;46.80;;;;;;4985777;28;20517;-57
2022/06/17 08:57:00;;;;;;;3.67;3.47;;;21.80;46.80;;;;;;4981547;28;20469;-57
2022/06/17 09:00:04;;;;;;;3.63;3.43;;;21.80;47.00;;;;;;4982886;28;20459;-57
2022/06/17 09:03:05;;;;;;;3.30;3.10;;;21.80;46.80;;;;;;4982376;28;20303;-57
2022/06/17 09:05:46;;;;;;;3.20;2.90;;;21.80;46.80;;;;;;4967772;28;20478;-58
2022/06/17 09:08:33;;;;;;;3.63;3.43;;;21.80;46.90;;;;;;4983383;28;20463;-58
2022/06/17 09:11:20;;;;;;;3.63;3.43;;;21.80;47.00;;;;;;4981854;28;20463;-58
2022/06/17 09:14:30;;;;;;;3.37;3.17;;;21.80;46.90;;;;;;4983039;28;20455;-57
2022/06/17 09:17:24;;;;;;;5.73;2.67;;;21.80;46.90;;;;;;4939926;28;20793;-57
2022/06/17 09:19:56;;;;;;;3.23;2.80;;;21.80;46.60;;;;;;4978938;28;20526;-57
2022/06/17 09:22:32;;;;;;;3.27;3.07;;;21.90;46.30;;;;;;4997345;28;20855;-57
2022/06/17 09:25:04;;;;;;;3.40;2.90;;;21.90;46.30;;;;;;4981811;28;20450;-58
2022/06/17 09:27:44;;;;;;;6.53;2.60;;;21.90;46.30;;;;;;4982061;28;20485;-57
2022/06/17 09:30:22;;;;;;;5.27;3.00;;;21.90;46.00;;;;;;4980530;28;20459;-57
2022/06/17 09:33:08;;;;;;;3.80;2.90;;;22.00;45.80;;;;;;4982840;28;20454;-57
2022/06/17 09:35:37;;;;;;;2.70;2.50;;;22.00;45.50;;;;;;4981224;28;20876;-57
2022/06/17 09:38:27;;;;;;;2.77;2.40;;;22.00;45.20;;;;;;4979527;28;21037;-57
2022/06/17 09:41:04;;;;;;;2.97;2.77;;;22.00;45.10;;;;;;4981493;28;20462;-57
2022/06/17 09:43:40;;;;;;;2.87;2.70;;;22.00;45.00;;;;;;4983757;28;20442;-58
2022/06/17 09:46:19;;;;;;;2.37;2.27;;;22.00;45.00;;;;;;4979939;28;20461;-57
2022/06/17 09:48:52;;;;;;;2.70;2.60;;;22.00;45.10;;;;;;4981202;28;20465;-58
2022/06/17 09:51:25;;;;;;;2.90;2.70;;;22.00;45.40;;;;;;4978112;28;20448;-58
2022/06/17 09:53:59;;;;;;;2.67;2.47;;;21.90;45.20;;;;;;4983464;28;20544;-58
2022/06/17 09:56:41;;;;;;;4.20;2.37;;;21.90;45.40;;;;;;4978616;28;20522;-58
2022/06/17 09:59:22;;;;;;;3.33;2.63;;;21.90;45.90;;;;;;4980117;28;20478;-59
2022/06/17 10:01:48;;;;;;;2.47;2.30;;;21.90;45.60;;;;;;4976909;28;20454;-57
2022/06/17 10:04:15;;;;;;;3.23;2.97;;;21.90;45.80;;;;;;4986310;28;20492;-58
2022/06/17 10:11:59;;;;;;;11.07;2.80;;;21.90;46.30;;;;;;3294528;26;21718;-58
2022/06/17 10:14:42;;;;;;;6.70;2.80;;;21.90;46.10;;;;;;4907111;28;20860;-59
2022/06/17 10:53:34;;;;;;;9.33;4.57;;;21.90;45.00;;;;;;3245711;26;20498;-59
2022/06/17 10:56:05;;;;;;;4.83;3.07;;;21.90;45.20;;;;;;4933627;28;20444;-62
2022/06/17 10:58:33;;;;;;;7.93;3.10;;;21.90;45.00;;;;;;4915147;28;20548;-63
2022/06/17 11:01:07;;;;;;;10.97;4.00;;;22.00;45.00;;;;;;4960218;28;20444;-59
2022/06/17 11:03:36;;;;;;;14.47;4.77;;;21.90;45.00;;;;;;4945273;28;20463;-58
2022/06/17 11:06:10;;;;;;;7.77;4.43;;;21.90;45.10;;;;;;5019346;28;20528;-58
2022/06/17 11:08:54;;;;;;;8.77;4.83;;;21.90;45.20;;;;;;5018643;28;20964;-58
2022/06/17 11:14:23;;;;;;;5.17;3.10;;;21.90;45.30;;;;;;5027694;28;21016;-58
2022/06/17 11:16:49;;;;;;;3.73;3.40;;;21.90;45.30;;;;;;5023306;28;20534;-58
2022/06/17 11:19:18;;;;;;;5.60;3.80;;;21.90;45.20;;;;;;5023266;28;20468;-58
2022/06/17 11:21:49;;;;;;;4.93;3.23;;;21.90;45.30;;;;;;5022965;28;20511;-58
2022/06/17 11:24:38;;;;;;;4.67;4.17;;;21.90;45.50;;;;;;5020263;28;20524;-58
2022/06/17 11:27:29;;;;;;;6.20;3.70;;;21.90;45.50;;;;;;5011936;28;20531;-58
2022/06/17 11:30:09;;;;;;;5.70;4.53;;;21.90;45.60;;;;;;5023853;28;20477;-58
2022/06/17 11:32:35;;;;;;;4.30;3.90;;;21.90;45.80;;;;;;5023413;28;20460;-58
2022/06/17 11:35:34;;;;;;;4.60;4.10;;;21.90;45.90;;;;;;5028237;28;20449;-58
2022/06/17 11:38:04;;;;;;;4.43;4.10;;;21.90;46.00;;;;;;5026628;28;20238;-58
2022/06/17 11:40:35;;;;;;;5.50;3.93;;;21.80;46.10;;;;;;5010286;28;20464;-59
2022/06/17 11:43:04;;;;;;;5.80;3.60;;;21.80;46.30;;;;;;5025784;28;20449;-57
2022/06/17 11:45:39;;;;;;;6.67;3.73;;;21.90;46.30;;;;;;5022993;28;20460;-58
2022/06/17 11:48:10;;;;;;;4.33;3.80;;;21.80;46.30;;;;;;5028639;28;20542;-58
2022/06/17 11:50:40;;;;;;;4.63;3.60;;;21.80;46.30;;;;;;5023926;28;20577;-58
2022/06/17 11:53:12;;;;;;;12.93;4.40;;;21.80;46.30;;;;;;5024183;28;20468;-57
2022/06/17 11:55:46;;;;;;;5.00;3.70;;;21.80;46.30;;;;;;5024967;28;20512;-58
2022/06/17 11:58:14;;;;;;;4.37;4.07;;;21.80;46.30;;;;;;5001390;28;20467;-58
2022/06/17 12:00:45;;;;;;;3.90;3.60;;;21.80;46.30;;;;;;5024585;28;20460;-57
2022/06/17 12:03:17;;;;;;;4.10;3.80;;;21.80;46.30;;;;;;5022259;28;20972;-58
2022/06/17 12:05:53;;;;;;;6.60;4.07;;;21.80;46.30;;;;;;5023547;28;20517;-58
2022/06/17 12:08:25;;;;;;;5.87;4.20;;;21.80;46.30;;;;;;5023115;28;20789;-59
2022/06/17 12:10:53;;;;;;;4.77;4.37;;;21.80;46.30;;;;;;5022197;28;20449;-58
2022/06/17 12:13:32;;;;;;;3.80;3.33;;;21.80;46.30;;;;;;5022519;28;20526;-58
2022/06/17 12:16:22;;;;;;;4.57;3.57;;;21.80;46.30;;;;;;5005523;28;20448;-58
2022/06/17 12:18:52;;;;;;;4.17;3.80;;;21.80;46.30;;;;;;5024700;28;20820;-58
2022/06/17 12:21:22;;;;;;;4.60;3.97;;;21.80;46.30;;;;;;5025702;28;20452;-59
2022/06/17 12:23:51;;;;;;;4.80;4.30;;;21.80;46.30;;;;;;5018630;28;20455;-59
2022/06/17 12:26:27;;;;;;;11.07;9.70;;;21.80;46.30;;;;;;5023253;28;20455;-59
2022/06/17 12:29:01;;;;;;;26.97;17.17;;;21.80;46.30;;;;;;5021503;28;20472;-58
2022/06/17 12:31:57;;;;;;;39.20;20.33;;;21.80;46.30;;;;;;5020360;28;20810;-59
2022/06/17 12:34:45;;;;;;;34.77;18.27;;;21.80;46.30;;;;;;5022393;28;20458;-61
2022/06/17 12:37:47;;;;;;;17.13;10.50;;;21.80;46.30;;;;;;5023747;28;20473;-58
2022/06/17 12:40:52;;;;;;;17.07;11.40;;;21.80;46.30;;;;;;5020326;28;20452;-59
2022/06/17 12:43:43;;;;;;;31.80;18.47;;;21.80;46.30;;;;;;5017324;28;20449;-58
2022/06/17 12:46:15;;;;;;;27.83;15.53;;;21.80;46.30;;;;;;5026412;28;20518;-58
2022/06/17 12:55:05;;;;;;;28.23;16.50;;;21.80;46.30;;;;;;5025195;28;20458;-58
2022/06/17 12:57:50;;;;;;;25.90;15.13;;;21.80;46.30;;;;;;5023688;28;20800;-58
2022/06/17 13:00:24;;;;;;;20.33;13.10;;;21.80;46.30;;;;;;5026065;28;20541;-58
2022/06/17 13:03:25;;;;;;;20.67;13.57;;;21.80;46.30;;;;;;5024110;28;20445;-58
2022/06/17 13:05:54;;;;;;;19.97;13.90;;;21.80;46.20;;;;;;5025430;28;20458;-60
2022/06/17 13:08:39;;;;;;;25.67;14.93;;;21.80;46.30;;;;;;5024779;28;20469;-59
2022/06/17 13:11:16;;;;;;;20.93;13.37;;;21.80;46.30;;;;;;5020620;28;20447;-59
2022/06/17 13:14:07;;;;;;;25.10;13.50;;;21.80;46.30;;;;;;5023736;28;20503;-58
2022/06/17 13:16:35;;;;;;;10.57;7.83;;;21.80;46.30;;;;;;5005254;28;20506;-58
2022/06/17 13:19:13;;;;;;;14.70;10.43;;;21.80;46.30;;;;;;5023134;28;20458;-58
2022/06/17 13:21:56;;;;;;;17.43;11.63;;;21.80;46.30;;;;;;5023187;28;20458;-58
2022/06/17 13:24:56;;;;;;;17.70;12.37;;;21.80;46.30;;;;;;5021777;28;20462;-58
2022/06/17 13:27:34;;;;;;;16.00;10.50;;;21.80;46.30;;;;;;5014330;28;20890;-57
2022/06/17 13:30:20;;;;;;;13.63;9.70;;;21.80;46.30;;;;;;5021388;28;21129;-58
2022/06/17 13:32:54;;;;;;;10.80;9.10;;;21.80;46.30;;;;;;5023179;28;20484;-58
2022/06/17 13:35:42;;;;;;;14.73;9.20;;;21.80;46.30;;;;;;5021143;28;20435;-58
2022/06/17 13:38:15;;;;;;;9.73;8.37;;;21.80;46.30;;;;;;5020810;28;20461;-58
2022/06/17 13:40:49;;;;;;;12.30;9.50;;;21.80;46.30;;;;;;5022164;28;20446;-58
2022/06/17 13:43:23;;;;;;;9.80;8.57;;;21.80;46.30;;;;;;5018957;28;21251;-58
2022/06/17 13:46:15;;;;;;;9.60;8.23;;;21.80;46.30;;;;;;5017824;28;20447;-57
2022/06/17 13:48:51;;;;;;;12.13;8.27;;;21.80;46.30;;;;;;5021415;28;20440;-58
2022/06/17 13:51:48;;;;;;;7.17;6.00;;;21.80;46.30;;;;;;5018420;28;20455;-58
2022/06/17 13:54:40;;;;;;;8.03;7.23;;;21.80;46.30;;;;;;5006364;28;20574;-58
2022/06/17 13:57:14;;;;;;;8.43;6.90;;;21.80;46.30;;;;;;5018800;28;20446;-59
2022/06/17 13:59:47;;;;;;;7.83;7.10;;;21.80;46.30;;;;;;5020148;28;20791;-59
2022/06/17 14:02:12;;;;;;;6.27;5.67;;;21.80;46.30;;;;;;5019933;28;20492;-57
2022/06/17 14:05:05;;;;;;;6.90;6.40;;;21.80;46.30;;;;;;5015564;28;20467;-58
2022/06/17 14:08:11;;;;;;;8.57;7.63;;;21.80;46.30;;;;;;5026191;28;20219;-58
2022/06/17 14:10:43;;;;;;;6.90;6.30;;;21.80;46.30;;;;;;4979874;28;20444;-58
2022/06/17 14:13:29;;;;;;;6.80;6.23;;;21.80;46.30;;;;;;5024843;28;20452;-57
2022/06/17 14:16:06;;;;;;;7.30;6.60;;;21.80;46.30;;;;;;5024795;28;20455;-58